Weather at Stanhope Municipal Airport

Public forecast

Using degrees Celsius for public forecast. Weather courtesy of forecast.io.

Closest aviation weather report (METAR) to Stanhope Municipal Airport

Closest report is Muskoka Airport, 29.3 nm (54.3 km) WSW. Retrieved 2022/08/09 08:00 UTC (23 minutes ago):

CYQA 090800Z AUTO 34010KT 310V020 9SM OVC007 15/15 A2990 RMK SLP125 DENSITY ALT 1300FT

Closest aviation forecast (TAF) to Stanhope Municipal Airport

Forecast is more than 12 hours old.

Closest forecast is Muskoka Airport, 29.3 nm (54.3 km) WSW. Retrieved 2022/08/08 20:00 UTC (12 hours ago):

TAF CYQA 081940Z 0820/0902 24005KT 6SM -SHRA BR SCT007 OVC012 TEMPO 0820/0824 4SM -SHRA BR OVC007 FM090000 32006KT P6SM -SHRA SCT007 OVC009 TEMPO 0900/0902 6SM -SHRA BR BKN007 OVC009 RMK FCST BASED ON AUTO OBS NXT FCST BY 091200Z